Alma, Georgia
Current Conditions -  °F | °C
As of 8:53 PM on Monday 20 Oct 2014 (Local Time) from KAMG Reporting Station
Broken Clouds Broken Clouds  
Wind Chill: 67°   Ceiling: 4800
Heat Index: 67°   Visibility: 9mi
Dew Point: 63°   Wind: 0mph
Humidity: 87%   Direction: NA
Pressure: 29.99"   Gusts: NA
Location:  31.54°N, 82.46°W
Report Text: KAMG 210053Z AUTO 00000KT 9SM BKN048 BKN075 19/17 A2999 RMK AO2 SLP152 T01940172
Loading
Personal Weather Stations






























Interactive Weather Map New forecast layout! Learn more

10-Day Weather Forecast

Advertisements
Track Severe Weather on mobile